UWKEUWKD

Guest
Details From UWKE - Begishevo
To UWKD - Kazan
Flight Number -
Tags Generated
Created
Modified
Stats Distance 95 nm / 177 km
Max Altitude 0 ft / 0 m
Waypoints 2
Social Downloads 4
Likes 0
Share VATSIM

Download

Looking for another format? Having issues loading an existing format? Contact us
Advertisement - Login to hide

Notes

Generated

Route

UWKE UWKD

ID Type Via Altitude Latitude Longitude Leg Dist Tot Dist Heading (true) Name
O UWKE APT - 0 ft / 0 m 55.55759˚ 52.07712˚ - 0 nm - -
O UWKD APT - 0 ft / 0 m 55.61063˚ 49.26681˚ 95 nm 95 nm 273° / 271° -

Altitude Profile

Advertisement - Login to hide

UWKE

Details ICAO UWKE (NBC)
Name BEGISHEVO
Region Russia
Timezone Europe/Moscow (UTC+3.0)
Stats Elevation 643 ft / 196 m (AMSL)
Location 55.563755° 52.089791°
Runways 2
Magnetic Variation 13.599° E

METAR

UWKE 151200Z 18007G12MPS CAVOK M07/M12 Q1029 R21/390040 NOSIG RMK QFE754/1006

Decode

TAF

TAF UWKE 151045Z 1512/1612 19007G12MPS 9999 BKN015 TEMPO 1512/1521 17009G14MPS 2100 -SN BLSN OVC005 TEMPO 1521/1609 2100 -SN BR OVC005

Decode

Departure Runways

ID Width Length Bearing (true) Bearing (mag) Surface Threshold Offset Overrun Length
03 190 ft / 58 m 5,609 ft / 1,710 m 47.09° 33.49° Grass 0 ft / 0 m 0 ft / 0 m
04 138 ft / 42 m 8,149 ft / 2,484 m 46.89° 33.29° Asphalt 0 ft / 0 m 170 ft / 52 m
21 190 ft / 58 m 5,609 ft / 1,710 m 227.11° 213.51° Grass 0 ft / 0 m 0 ft / 0 m
22 138 ft / 42 m 8,149 ft / 2,484 m 226.91° 213.31° Asphalt 0 ft / 0 m 190 ft / 58 m

UWKD

Details ICAO UWKD (KZN)
Name KAZAN
Region Russia
Timezone Europe/Moscow (UTC+3.0)
Stats Elevation 411 ft / 125 m (AMSL)
Location 55.606544° 49.279689°
Runways 2
Magnetic Variation 13.287° E

METAR

UWKD 151130Z 16008G13MPS 1300 1200W R11/1200U SN BLSN OVC023 M07/M08 Q1025 R11/750349 NOSIG RMK QFE758/1011

Decode

TAF

TAF UWKD 151051Z 1511/1612 16007G12MPS 3100 -SN BLSN OVC011 TXM04/1611Z TNM07/1603Z TEMPO 1511/1521 15010G15MPS 1000 SNRA FZRA OVC006 TEMPO 1521/1609 1000 SN BKN006

Decode

Destination Runways

ID Width Length Bearing (true) Bearing (mag) Surface Threshold Offset Overrun Length
11L 144 ft / 44 m 12,189 ft / 3,715 m 126.46° 113.17° Concrete 837 ft / 255 m 0 ft / 0 m
11R 148 ft / 45 m 8,174 ft / 2,492 m 124.48° 111.19° Concrete 0 ft / 0 m 180 ft / 55 m
29L 148 ft / 45 m 8,174 ft / 2,492 m 304.51° 291.22° Concrete 0 ft / 0 m 180 ft / 55 m
29R 144 ft / 44 m 12,189 ft / 3,715 m 306.50° 293.21° Concrete 0 ft / 0 m 160 ft / 49 m

Popular Alternatives